Time;durP1;ratioP1;P1;durP2;ratioP2;P2;SDS_P1;SDS_P2;PMS_P1;PMS_P2;Temp;Humidity;BMP_temperature;BMP_pressure;BME280_temperature;BME280_humidity;BME280_pressure;Samples;Min_cycle;Max_cycle;Signal;HPM_P1;HPM_P2
2021/10/05 00:01:03;;;;;;;23.90;17.08;;;14.20;96.20;;;;;;5013688;28;20041;-45
2021/10/05 00:03:29;;;;;;;21.58;15.10;;;14.40;95.90;;;;;;5013537;28;20092;-45
2021/10/05 00:05:54;;;;;;;25.05;15.43;;;14.40;95.60;;;;;;5013801;28;20022;-45
2021/10/05 00:08:20;;;;;;;28.17;14.90;;;14.50;95.30;;;;;;5013604;28;20476;-45
2021/10/05 00:10:47;;;;;;;22.50;14.73;;;14.50;95.40;;;;;;5013521;28;20030;-45
2021/10/05 00:13:13;;;;;;;22.50;14.07;;;14.60;95.30;;;;;;4978759;28;20038;-45
2021/10/05 00:15:39;;;;;;;19.35;14.20;;;14.60;95.10;;;;;;5013638;28;20105;-45
2021/10/05 00:18:04;;;;;;;19.98;13.35;;;14.70;94.80;;;;;;5013527;28;20423;-45
2021/10/05 00:20:30;;;;;;;23.52;13.50;;;14.70;94.80;;;;;;5011493;28;20121;-46
2021/10/05 00:22:58;;;;;;;15.93;12.52;;;14.90;94.70;;;;;;4995036;28;20132;-46
2021/10/05 00:25:24;;;;;;;25.42;13.18;;;14.90;94.40;;;;;;5016261;28;20033;-45
2021/10/05 00:27:50;;;;;;;20.20;14.05;;;15.00;94.20;;;;;;5017406;28;20030;-45
2021/10/05 00:30:16;;;;;;;20.05;13.15;;;15.00;94.00;;;;;;5017269;28;20065;-46
2021/10/05 00:32:42;;;;;;;24.90;13.35;;;15.10;93.60;;;;;;5017210;28;20049;-47
2021/10/05 00:35:08;;;;;;;18.55;12.50;;;15.10;93.60;;;;;;5017183;28;20083;-47
2021/10/05 00:37:34;;;;;;;21.55;13.20;;;15.00;93.60;;;;;;4999054;28;20121;-45
2021/10/05 00:40:00;;;;;;;18.88;12.68;;;14.70;94.00;;;;;;5014836;28;20137;-45
2021/10/05 00:42:26;;;;;;;22.20;13.10;;;14.50;94.40;;;;;;5017104;28;20118;-47
2021/10/05 00:44:52;;;;;;;19.27;12.52;;;14.40;94.60;;;;;;5017136;28;20026;-45
2021/10/05 00:47:18;;;;;;;18.35;13.70;;;14.60;94.30;;;;;;5014782;28;20066;-45
2021/10/05 00:49:46;;;;;;;17.63;12.80;;;14.40;94.40;;;;;;5017321;28;20066;-44
2021/10/05 00:52:13;;;;;;;20.02;13.63;;;14.50;94.40;;;;;;5017060;28;20537;-45
2021/10/05 00:54:41;;;;;;;26.25;15.00;;;14.40;94.40;;;;;;5016527;28;20367;-44
2021/10/05 00:57:09;;;;;;;18.60;14.00;;;14.60;94.40;;;;;;5017091;28;20137;-45
2021/10/05 00:59:35;;;;;;;18.25;13.00;;;14.60;94.50;;;;;;5016824;28;20033;-45
2021/10/05 01:02:05;;;;;;;20.95;14.13;;;14.70;94.10;;;;;;5016715;28;20374;-47
2021/10/05 01:04:30;;;;;;;17.48;12.75;;;14.50;94.30;;;;;;5016758;28;20114;-44
2021/10/05 01:07:00;;;;;;;38.00;14.65;;;14.30;94.50;;;;;;5016729;28;20104;-45
2021/10/05 01:09:27;;;;;;;16.55;12.10;;;14.10;94.80;;;;;;5014511;28;20070;-45
2021/10/05 01:11:54;;;;;;;16.13;12.20;;;14.20;94.80;;;;;;5016357;28;20505;-45
2021/10/05 01:14:20;;;;;;;17.67;11.98;;;14.30;94.70;;;;;;5016513;28;20060;-44
2021/10/05 01:16:46;;;;;;;19.42;13.05;;;14.50;94.30;;;;;;5016546;28;20030;-45
2021/10/05 01:19:12;;;;;;;23.48;13.30;;;14.50;94.20;;;;;;5016497;28;20084;-44
2021/10/05 01:21:37;;;;;;;20.27;12.43;;;14.60;94.00;;;;;;4998118;28;20033;-44
2021/10/05 01:24:06;;;;;;;14.07;11.55;;;14.60;93.90;;;;;;5016435;28;20064;-45
2021/10/05 01:26:32;;;;;;;20.33;11.63;;;14.70;93.70;;;;;;5016082;28;20118;-45
2021/10/05 01:29:02;;;;;;;20.17;12.00;;;14.70;93.60;;;;;;4998064;28;20390;-45
2021/10/05 01:31:30;;;;;;;18.80;11.55;;;14.80;93.50;;;;;;4998417;28;20046;-45
2021/10/05 01:33:56;;;;;;;16.27;11.80;;;14.70;93.50;;;;;;5016189;28;20041;-44
2021/10/05 01:36:22;;;;;;;18.52;10.65;;;14.80;93.30;;;;;;5015381;28;20490;-45
2021/10/05 01:38:48;;;;;;;16.92;10.95;;;14.80;93.20;;;;;;5015936;28;20050;-46
2021/10/05 01:41:14;;;;;;;20.63;10.85;;;14.80;93.10;;;;;;5016031;28;20101;-46
2021/10/05 01:43:40;;;;;;;18.38;10.82;;;14.90;93.00;;;;;;5016060;28;20026;-44
2021/10/05 01:46:11;;;;;;;16.05;10.95;;;14.90;93.00;;;;;;5016044;28;20363;-45
2021/10/05 01:48:38;;;;;;;23.17;12.43;;;14.90;92.80;;;;;;5015917;28;20558;-46
2021/10/05 01:51:04;;;;;;;13.95;10.07;;;14.90;93.00;;;;;;5016361;28;20057;-45
2021/10/05 01:53:30;;;;;;;13.93;9.98;;;14.70;93.00;;;;;;5015864;28;20101;-46
2021/10/05 01:55:56;;;;;;;15.73;10.05;;;14.60;93.30;;;;;;5015704;28;20034;-44
2021/10/05 01:58:22;;;;;;;13.13;10.50;;;14.70;93.20;;;;;;5016037;28;20026;-46
2021/10/05 02:00:48;;;;;;;13.40;8.85;;;14.70;93.20;;;;;;5015746;28;20080;-45
2021/10/05 02:03:14;;;;;;;15.38;9.10;;;14.60;93.10;;;;;;5015746;28;20029;-45
2021/10/05 02:05:41;;;;;;;13.32;9.32;;;14.50;93.10;;;;;;5015578;28;20359;-44
2021/10/05 02:08:08;;;;;;;12.77;9.13;;;14.50;93.20;;;;;;5015856;28;20042;-46
2021/10/05 02:10:34;;;;;;;14.70;9.43;;;14.40;93.30;;;;;;5013333;28;20038;-46
2021/10/05 02:13:00;;;;;;;14.18;10.20;;;14.40;93.40;;;;;;5015667;28;20033;-46
2021/10/05 02:15:26;;;;;;;13.55;9.70;;;14.30;93.50;;;;;;5015301;28;20038;-46
2021/10/05 02:17:52;;;;;;;13.45;9.40;;;14.10;93.50;;;;;;4997036;28;20034;-44
2021/10/05 02:20:17;;;;;;;14.65;10.13;;;14.10;93.60;;;;;;4996645;28;20030;-45
2021/10/05 02:22:43;;;;;;;13.90;9.73;;;14.10;93.60;;;;;;4995068;28;20117;-45
2021/10/05 02:25:10;;;;;;;12.38;10.02;;;13.90;94.10;;;;;;5003826;28;20061;-45
2021/10/05 02:27:36;;;;;;;16.27;10.82;;;14.00;94.20;;;;;;5005028;28;20032;-45
2021/10/05 02:30:03;;;;;;;13.05;10.07;;;14.20;93.90;;;;;;5003386;28;20026;-45
2021/10/05 02:32:29;;;;;;;16.35;10.23;;;14.30;93.90;;;;;;4985860;28;20030;-45
2021/10/05 02:34:57;;;;;;;13.45;10.27;;;14.40;93.70;;;;;;4970844;28;20041;-46
2021/10/05 02:37:23;;;;;;;14.95;9.95;;;14.40;93.50;;;;;;5004525;28;20477;-45
2021/10/05 02:39:49;;;;;;;15.35;9.90;;;14.40;93.60;;;;;;5004011;28;20052;-46
2021/10/05 02:42:15;;;;;;;12.73;10.88;;;14.40;93.70;;;;;;5002932;28;20093;-45
2021/10/05 02:44:41;;;;;;;15.30;10.40;;;14.30;93.80;;;;;;4995201;28;20034;-46
2021/10/05 02:47:08;;;;;;;18.85;10.63;;;14.20;94.00;;;;;;4994754;28;20029;-46
2021/10/05 02:49:36;;;;;;;11.30;9.77;;;14.20;94.00;;;;;;4977098;28;20043;-46
2021/10/05 02:52:02;;;;;;;16.58;11.02;;;14.20;94.20;;;;;;4977077;28;20487;-45
2021/10/05 02:54:28;;;;;;;13.63;10.43;;;14.20;94.30;;;;;;4960255;28;20050;-46
2021/10/05 02:56:54;;;;;;;16.02;10.50;;;14.10;94.50;;;;;;5009405;28;20085;-45
2021/10/05 02:59:19;;;;;;;12.73;9.93;;;14.20;94.30;;;;;;4993214;28;20092;-45
2021/10/05 03:01:45;;;;;;;13.95;9.88;;;14.10;94.40;;;;;;4995086;28;20113;-47
2021/10/05 03:04:11;;;;;;;15.05;9.80;;;14.10;94.60;;;;;;4960382;28;20030;-45
2021/10/05 03:06:37;;;;;;;14.00;10.05;;;14.00;94.90;;;;;;4992930;28;20121;-46
2021/10/05 03:09:03;;;;;;;11.50;9.40;;;13.90;95.00;;;;;;4994678;28;20026;-46
2021/10/05 03:11:29;;;;;;;14.35;10.07;;;13.90;95.00;;;;;;4994650;28;20035;-46
2021/10/05 03:13:55;;;;;;;15.10;10.02;;;14.00;94.80;;;;;;4944434;28;20100;-45
2021/10/05 03:16:20;;;;;;;18.95;10.45;;;14.10;94.60;;;;;;4994451;28;20057;-46
2021/10/05 03:18:47;;;;;;;16.90;10.52;;;14.20;94.40;;;;;;4994543;28;20042;-46
2021/10/05 03:21:12;;;;;;;12.82;9.52;;;14.10;94.50;;;;;;4994628;28;20030;-45
2021/10/05 03:23:40;;;;;;;14.23;11.00;;;14.10;94.50;;;;;;5025605;28;20030;-46
2021/10/05 03:26:05;;;;;;;19.58;12.27;;;13.90;94.30;;;;;;4994291;28;20030;-46
2021/10/05 03:28:32;;;;;;;16.60;11.82;;;13.40;95.00;;;;;;4994511;28;20023;-46
2021/10/05 03:30:59;;;;;;;20.88;12.38;;;13.40;95.00;;;;;;4994163;28;20048;-46
2021/10/05 03:33:26;;;;;;;16.38;12.05;;;13.40;95.00;;;;;;4998774;28;20030;-45
2021/10/05 03:35:52;;;;;;;16.73;12.90;;;13.40;95.00;;;;;;5005872;28;20121;-46
2021/10/05 03:38:17;;;;;;;23.25;13.88;;;13.50;94.80;;;;;;5002007;28;20176;-46
2021/10/05 03:40:43;;;;;;;22.08;13.77;;;13.60;94.70;;;;;;5002456;28;20022;-44
2021/10/05 03:43:09;;;;;;;21.55;12.85;;;13.60;94.60;;;;;;4979204;28;20033;-45
2021/10/05 03:45:35;;;;;;;22.25;13.93;;;13.70;94.30;;;;;;4995259;28;20049;-46
2021/10/05 03:48:00;;;;;;;24.10;13.10;;;13.80;94.10;;;;;;4995486;28;20038;-45
2021/10/05 03:50:26;;;;;;;19.42;14.35;;;13.80;93.90;;;;;;5013735;28;20030;-45
2021/10/05 03:52:52;;;;;;;20.05;13.57;;;13.70;94.10;;;;;;5012204;28;20044;-45
2021/10/05 03:55:18;;;;;;;17.83;12.35;;;13.10;94.80;;;;;;5004864;28;20031;-45
2021/10/05 03:57:43;;;;;;;14.80;12.40;;;13.00;99.90;;;;;;5003597;28;20026;-46
2021/10/05 04:00:10;;;;;;;22.60;13.00;;;12.90;95.50;;;;;;5010825;28;20026;-45
2021/10/05 04:02:36;;;;;;;17.85;13.60;;;12.50;96.10;;;;;;5013716;28;20041;-46
2021/10/05 04:05:03;;;;;;;17.08;12.70;;;12.10;96.70;;;;;;5005574;28;20087;-46
2021/10/05 04:07:29;;;;;;;19.50;12.98;;;12.10;96.70;;;;;;4981558;28;20037;-45
2021/10/05 04:09:55;;;;;;;19.75;12.75;;;12.50;96.10;;;;;;4981674;28;20042;-46
2021/10/05 04:12:20;;;;;;;17.17;12.02;;;12.70;95.50;;;;;;4969018;28;20035;-46
2021/10/05 04:14:46;;;;;;;17.83;12.90;;;13.00;95.10;;;;;;4991336;28;20041;-45
2021/10/05 04:17:12;;;;;;;17.92;12.20;;;13.20;94.70;;;;;;4953349;28;20105;-45
2021/10/05 04:19:44;;;;;;;19.20;13.07;;;13.20;94.70;;;;;;4984913;28;20174;-46
2021/10/05 04:22:09;;;;;;;18.90;12.45;;;13.20;94.70;;;;;;4959848;28;20407;-46
2021/10/05 04:24:35;;;;;;;18.75;13.32;;;13.10;94.80;;;;;;4978859;28;20039;-45
2021/10/05 04:27:04;;;;;;;19.25;13.10;;;13.00;94.80;;;;;;4982102;28;20041;-45
2021/10/05 04:29:30;;;;;;;19.85;13.60;;;13.00;94.90;;;;;;4981098;28;20407;-45
2021/10/05 04:31:55;;;;;;;16.60;13.02;;;13.00;95.00;;;;;;4980603;28;20030;-45
2021/10/05 04:34:21;;;;;;;19.90;13.07;;;13.10;94.90;;;;;;4980010;28;20026;-45
2021/10/05 04:36:47;;;;;;;20.10;12.60;;;13.00;94.80;;;;;;4983147;28;20026;-45
2021/10/05 04:39:12;;;;;;;17.08;12.43;;;13.10;94.70;;;;;;4925766;28;20082;-45
2021/10/05 04:41:38;;;;;;;16.80;13.10;;;12.70;95.00;;;;;;5004887;28;20026;-44
2021/10/05 04:44:04;;;;;;;20.27;12.65;;;12.70;95.20;;;;;;4975673;28;20038;-45
2021/10/05 04:46:30;;;;;;;19.30;13.73;;;12.70;95.40;;;;;;4997171;28;20034;-46
2021/10/05 04:48:56;;;;;;;23.50;14.35;;;12.60;95.70;;;;;;4993927;28;20440;-45
2021/10/05 04:51:21;;;;;;;19.92;12.98;;;12.70;95.70;;;;;;5002234;28;20094;-47
2021/10/05 04:53:47;;;;;;;17.20;12.40;;;12.40;96.00;;;;;;4993386;28;20044;-45
2021/10/05 04:56:13;;;;;;;18.20;12.60;;;12.40;96.30;;;;;;4993675;28;20026;-46
2021/10/05 04:58:38;;;;;;;17.75;12.30;;;12.40;96.20;;;;;;5008512;28;20038;-46
2021/10/05 05:01:04;;;;;;;16.52;11.38;;;12.40;96.00;;;;;;5013093;28;20381;-45
2021/10/05 05:03:30;;;;;;;17.45;12.50;;;12.30;96.10;;;;;;5013134;28;20021;-45
2021/10/05 05:05:56;;;;;;;17.77;12.73;;;12.10;96.50;;;;;;5013153;28;20045;-45
2021/10/05 05:08:21;;;;;;;20.25;12.93;;;12.00;96.60;;;;;;5013000;28;20488;-44
2021/10/05 05:10:47;;;;;;;19.30;12.50;;;12.20;96.50;;;;;;5014856;28;20437;-45
2021/10/05 05:13:13;;;;;;;26.02;13.90;;;12.50;96.00;;;;;;5006135;28;20034;-45
2021/10/05 05:15:39;;;;;;;20.80;13.98;;;12.70;95.70;;;;;;5011030;28;20105;-45
2021/10/05 05:18:05;;;;;;;25.25;12.98;;;12.90;95.40;;;;;;4992399;28;20368;-45
2021/10/05 05:20:31;;;;;;;22.67;13.00;;;13.10;95.20;;;;;;4975955;28;20072;-46
2021/10/05 05:22:57;;;;;;;21.85;13.82;;;13.10;94.90;;;;;;4960602;28;20046;-47
2021/10/05 05:25:22;;;;;;;20.55;13.93;;;13.30;94.90;;;;;;5013965;28;20396;-45
2021/10/05 05:27:48;;;;;;;21.92;12.70;;;13.40;94.60;;;;;;5012024;28;20072;-44
2021/10/05 05:30:14;;;;;;;23.17;12.40;;;13.30;94.70;;;;;;5014056;28;20033;-46
2021/10/05 05:32:40;;;;;;;18.20;12.13;;;13.30;95.00;;;;;;4964627;28;20030;-46
2021/10/05 05:35:06;;;;;;;21.13;12.77;;;13.40;94.90;;;;;;4993819;28;20453;-45
2021/10/05 05:37:32;;;;;;;17.70;12.35;;;13.60;94.90;;;;;;4960558;28;20383;-46
2021/10/05 05:39:57;;;;;;;18.55;11.63;;;13.70;95.00;;;;;;5011985;28;20091;-46
2021/10/05 05:42:23;;;;;;;14.02;10.52;;;13.70;95.20;;;;;;5012688;28;20582;-44
2021/10/05 05:44:52;;;;;;;20.42;13.13;;;13.90;95.00;;;;;;4996280;28;20026;-46
2021/10/05 05:47:17;;;;;;;17.05;11.98;;;14.10;95.50;;;;;;5011563;28;20033;-46
2021/10/05 05:49:43;;;;;;;17.70;13.07;;;14.20;95.40;;;;;;5010704;28;20029;-45
2021/10/05 05:52:09;;;;;;;26.13;14.20;;;14.40;95.20;;;;;;5012680;28;20032;-46
2021/10/05 05:54:35;;;;;;;23.55;13.82;;;14.60;95.80;;;;;;5006885;28;20084;-46
2021/10/05 05:57:00;;;;;;;74.05;46.03;;;15.00;96.20;;;;;;5008386;28;20045;-46
2021/10/05 05:59:26;;;;;;;74.03;46.35;;;15.10;94.60;;;;;;5010885;28;20022;-45
2021/10/05 06:01:52;;;;;;;25.80;16.38;;;14.90;94.90;;;;;;5011702;28;20034;-46
2021/10/05 06:04:18;;;;;;;18.65;14.00;;;15.20;96.60;;;;;;4995281;28;20474;-46
2021/10/05 06:06:43;;;;;;;16.73;13.60;;;15.70;94.20;;;;;;5012210;28;20033;-46
2021/10/05 06:09:09;;;;;;;18.92;13.18;;;16.20;95.40;;;;;;5011661;28;20522;-44
2021/10/05 06:11:38;;;;;;;17.27;11.80;;;16.60;94.10;;;;;;5013402;28;20080;-45
2021/10/05 06:14:04;;;;;;;14.43;11.27;;;16.90;93.90;;;;;;4995732;28;20046;-46
2021/10/05 06:16:30;;;;;;;16.75;12.20;;;16.30;93.60;;;;;;5008927;28;20087;-46
2021/10/05 06:18:56;;;;;;;16.08;11.68;;;16.40;93.00;;;;;;5010900;28;20091;-46
2021/10/05 06:21:22;;;;;;;20.00;14.25;;;16.80;94.00;;;;;;4973966;28;20026;-45
2021/10/05 06:23:48;;;;;;;24.73;15.90;;;17.60;92.10;;;;;;4992721;28;20541;-46
2021/10/05 06:26:14;;;;;;;28.38;18.45;;;17.80;91.50;;;;;;5007998;28;20050;-45
2021/10/05 06:28:40;;;;;;;26.25;16.25;;;17.70;91.50;;;;;;5010940;28;20479;-46
2021/10/05 06:31:05;;;;;;;24.55;14.05;;;18.90;91.90;;;;;;5011834;28;20030;-45
2021/10/05 06:33:31;;;;;;;21.40;13.35;;;19.90;94.50;;;;;;5010173;28;20036;-45
2021/10/05 06:35:57;;;;;;;22.67;13.15;;;20.00;92.20;;;;;;5006315;28;20030;-45
2021/10/05 06:38:24;;;;;;;19.42;13.05;;;;;;;;;;5021272;28;20065;-45
2021/10/05 06:40:49;;;;;;;20.08;11.68;;;22.20;97.80;;;;;;5012776;28;20026;-46
2021/10/05 06:43:15;;;;;;;17.25;11.55;;;21.40;81.50;;;;;;5008012;28;20022;-46
2021/10/05 06:45:43;;;;;;;15.82;10.80;;;22.10;84.80;;;;;;4971428;28;20046;-46
2021/10/05 06:48:09;;;;;;;17.50;10.55;;;;;;;;;;5010916;28;20030;-46
2021/10/05 06:50:35;;;;;;;17.15;12.40;;;22.10;90.70;;;;;;5012639;28;20049;-45
2021/10/05 06:53:03;;;;;;;17.70;10.82;;;23.10;88.70;;;;;;4959778;28;20505;-45
2021/10/05 06:55:29;;;;;;;17.80;11.52;;;23.70;89.20;;;;;;4990310;28;20390;-46
2021/10/05 06:57:56;;;;;;;16.88;12.15;;;;;;;;;;5009982;28;20043;-46
2021/10/05 07:00:22;;;;;;;19.60;11.90;;;;;;;;;;5009042;28;20125;-46
2021/10/05 07:02:50;;;;;;;15.30;11.20;;;23.20;97.90;;;;;;5009749;28;20114;-46
2021/10/05 07:05:17;;;;;;;18.88;11.27;;;;;;;;;;5010133;28;20065;-46
2021/10/05 07:07:46;;;;;;;16.58;10.88;;;24.10;74.40;;;;;;5006778;28;20022;-45
2021/10/05 07:10:14;;;;;;;15.68;10.77;;;23.80;75.30;;;;;;5009296;28;20065;-46
2021/10/05 07:12:40;;;;;;;13.00;10.00;;;24.00;91.10;;;;;;4952190;28;20046;-46
2021/10/05 07:15:07;;;;;;;13.88;9.27;;;24.20;91.40;;;;;;4941355;28;20106;-45
2021/10/05 07:17:33;;;;;;;15.48;10.73;;;24.60;92.90;;;;;;4989724;28;20118;-44
2021/10/05 07:20:00;;;;;;;14.77;10.48;;;;;;;;;;4990300;28;20545;-45
2021/10/05 07:22:26;;;;;;;12.90;9.82;;;;;;;;;;4989222;28;20034;-44
2021/10/05 07:24:52;;;;;;;14.77;9.80;;;;;;;;;;4970871;28;20039;-44
2021/10/05 07:27:18;;;;;;;14.63;10.20;;;;;;;;;;4988803;28;20080;-45
2021/10/05 07:29:45;;;;;;;16.23;9.77;;;27.40;98.20;;;;;;4984476;28;20054;-44
2021/10/05 07:32:11;;;;;;;14.07;9.57;;;;;;;;;;4989289;28;20042;-45
2021/10/05 07:34:38;;;;;;;15.50;10.45;;;;;;;;;;4988450;28;20490;-45
2021/10/05 07:37:04;;;;;;;12.68;9.73;;;;;;;;;;4988862;28;20030;-44
2021/10/05 07:39:30;;;;;;;13.50;9.55;;;;;;;;;;4983936;28;20062;-43
2021/10/05 07:41:56;;;;;;;10.15;8.02;;;;;;;;;;4989425;28;20045;-44
2021/10/05 07:44:22;;;;;;;12.68;9.88;;;24.50;71.20;;;;;;5000866;28;20042;-45
2021/10/05 07:46:49;;;;;;;14.40;9.30;;;;;;;;;;5009801;28;20040;-45
2021/10/05 07:49:15;;;;;;;15.57;9.75;;;;;;;;;;5011021;28;20033;-44
2021/10/05 07:51:41;;;;;;;14.43;10.90;;;;;;;;;;5005390;28;20029;-44
2021/10/05 07:54:07;;;;;;;17.88;12.00;;;;;;;;;;4991111;28;20458;-44
2021/10/05 07:56:34;;;;;;;17.02;11.10;;;;;;;;;;5009255;28;20022;-44
2021/10/05 07:59:00;;;;;;;15.48;11.70;;;;;;;;;;5009998;28;20390;-44
2021/10/05 08:01:26;;;;;;;18.20;9.57;;;;;;;;;;5009551;28;20066;-45
2021/10/05 08:03:52;;;;;;;15.45;9.45;;;;;;;;;;4991504;28;20457;-44
2021/10/05 08:06:18;;;;;;;12.13;9.18;;;28.50;67.30;;;;;;5010687;28;20113;-45
2021/10/05 08:08:46;;;;;;;14.43;9.40;;;28.10;66.50;;;;;;5010399;28;20133;-46
2021/10/05 08:11:13;;;;;;;14.32;10.60;;;;;;;;;;4958448;28;20037;-45
2021/10/05 08:13:39;;;;;;;12.75;9.80;;;;;;;;;;5007542;28;20108;-45
2021/10/05 08:16:05;;;;;;;13.23;10.05;;;29.20;70.20;;;;;;4988472;28;20137;-46
2021/10/05 08:18:30;;;;;;;17.98;10.55;;;28.90;69.40;;;;;;5004912;28;20610;-46
2021/10/05 08:20:56;;;;;;;13.50;7.70;;;;;;;;;;5008982;28;20516;-45
2021/10/05 08:23:22;;;;;;;15.23;9.00;;;29.80;70.00;;;;;;5007462;28;20109;-45
2021/10/05 08:25:48;;;;;;;11.77;8.30;;;28.70;66.00;;;;;;4984349;28;20185;-44
2021/10/05 08:28:14;;;;;;;9.68;8.07;;;;;;;;;;5006925;28;20041;-46
2021/10/05 08:30:40;;;;;;;13.07;6.78;;;30.30;88.60;;;;;;5001635;28;20048;-46
2021/10/05 08:33:06;;;;;;;9.80;5.93;;;29.80;64.00;;;;;;4992438;28;20128;-45
2021/10/05 08:35:32;;;;;;;7.63;5.80;;;;;;;;;;4987990;28;20501;-45
2021/10/05 08:37:59;;;;;;;17.60;4.90;;;28.90;65.30;;;;;;5001184;28;20085;-45
2021/10/05 08:40:25;;;;;;;9.38;6.93;;;28.00;63.30;;;;;;5005655;28;20374;-45
2021/10/05 08:42:51;;;;;;;12.50;6.97;;;28.20;64.60;;;;;;5004555;28;20120;-44
2021/10/05 08:45:17;;;;;;;12.90;6.65;;;28.90;64.00;;;;;;5000207;28;20173;-46
2021/10/05 08:47:44;;;;;;;9.77;5.55;;;29.00;63.70;;;;;;4963407;28;20057;-45
2021/10/05 08:50:11;;;;;;;10.25;5.53;;;29.00;62.50;;;;;;4979483;28;20038;-45
2021/10/05 08:52:38;;;;;;;8.00;6.35;;;28.40;62.70;;;;;;4979883;28;20446;-45
2021/10/05 08:55:05;;;;;;;8.15;5.93;;;29.20;63.00;;;;;;5006348;28;20254;-45
2021/10/05 08:57:32;;;;;;;11.43;6.00;;;;;;;;;;5006216;28;20030;-44
2021/10/05 09:00:02;;;;;;;8.40;6.20;;;29.30;62.20;;;;;;5008077;28;20034;-45
2021/10/05 09:02:27;;;;;;;11.52;7.22;;;29.50;62.60;;;;;;5010720;28;20029;-45
2021/10/05 09:04:57;;;;;;;13.55;6.20;;;28.90;62.10;;;;;;5010601;28;20063;-45
2021/10/05 09:07:25;;;;;;;8.05;5.95;;;28.70;62.50;;;;;;5009240;28;20041;-45
2021/10/05 09:09:56;;;;;;;8.75;5.68;;;29.20;63.00;;;;;;4987864;28;20073;-45
2021/10/05 09:12:27;;;;;;;9.40;5.55;;;28.30;61.90;;;;;;4958841;28;20458;-44
2021/10/05 09:14:54;;;;;;;10.15;6.90;;;28.00;62.10;;;;;;4958022;28;20133;-45
2021/10/05 09:17:23;;;;;;;7.68;6.45;;;;;;;;;;4990369;28;20030;-45
2021/10/05 09:19:51;;;;;;;7.82;6.10;;;29.70;60.80;;;;;;4986260;28;20133;-46
2021/10/05 09:22:23;;;;;;;7.50;5.95;;;29.10;61.10;;;;;;4983886;28;20069;-45
2021/10/05 09:24:50;;;;;;;10.52;4.65;;;29.20;61.70;;;;;;4944546;28;20078;-44
2021/10/05 09:27:16;;;;;;;6.20;4.50;;;28.60;61.80;;;;;;4986707;28;20485;-46
2021/10/05 09:29:44;;;;;;;8.05;4.90;;;28.50;61.20;;;;;;4988150;28;20560;-45
2021/10/05 09:32:17;;;;;;;8.45;5.35;;;28.40;61.30;;;;;;4972169;28;20070;-45
2021/10/05 09:34:46;;;;;;;6.90;4.53;;;28.30;61.60;;;;;;4975713;28;20650;-45
2021/10/05 09:37:20;;;;;;;8.40;5.03;;;27.90;61.70;;;;;;4991020;28;20042;-46
2021/10/05 09:39:47;;;;;;;7.45;4.93;;;28.50;61.80;;;;;;4988019;28;20053;-46
2021/10/05 09:42:22;;;;;;;7.78;4.75;;;;;;;;;;5029580;28;20125;-46
2021/10/05 09:44:52;;;;;;;8.75;5.10;;;;;;;;;;5011216;28;20083;-47
2021/10/05 09:47:29;;;;;;;7.20;4.93;;;;;;;;;;5012210;28;20036;-47
2021/10/05 09:49:55;;;;;;;7.93;4.60;;;30.00;86.00;;;;;;5011119;28;20509;-46
2021/10/05 09:52:20;;;;;;;7.97;4.32;;;30.00;78.00;;;;;;5011410;28;20113;-47
2021/10/05 09:54:46;;;;;;;9.05;4.38;;;29.80;76.00;;;;;;5012123;28;20115;-46
2021/10/05 09:57:13;;;;;;;5.45;4.80;;;30.20;75.30;;;;;;5008346;28;20046;-47
2021/10/05 09:59:39;;;;;;;4.70;3.90;;;30.30;77.60;;;;;;5006776;28;20026;-46
2021/10/05 10:02:07;;;;;;;10.20;5.70;;;29.20;69.40;;;;;;5009505;28;20375;-45
2021/10/05 10:04:34;;;;;;;10.77;5.47;;;29.40;70.10;;;;;;5010619;28;20056;-45
2021/10/05 10:07:00;;;;;;;7.72;5.65;;;;;;;;;;5011641;28;20088;-46
2021/10/05 10:09:27;;;;;;;10.68;5.50;;;28.60;92.40;;;;;;5011363;28;20048;-45
2021/10/05 10:11:53;;;;;;;11.38;5.20;;;28.60;62.30;;;;;;5010768;28;20088;-45
2021/10/05 10:14:20;;;;;;;7.90;4.65;;;;;;;;;;5011230;28;20045;-46
2021/10/05 10:16:48;;;;;;;10.43;4.35;;;29.30;57.20;;;;;;5012234;28;20037;-45
2021/10/05 10:19:26;;;;;;;13.90;5.18;;;28.90;57.70;;;;;;5010197;28;20036;-45
2021/10/05 10:21:51;;;;;;;6.00;4.65;;;29.50;57.80;;;;;;5010414;28;20041;-47
2021/10/05 10:24:19;;;;;;;6.72;5.25;;;29.20;57.50;;;;;;5009174;28;20034;-45
2021/10/05 10:26:48;;;;;;;7.95;5.45;;;29.60;57.50;;;;;;5011913;28;20049;-47
2021/10/05 10:29:26;;;;;;;7.82;4.95;;;29.00;57.10;;;;;;4992843;28;20128;-47
2021/10/05 10:31:51;;;;;;;8.68;5.00;;;28.90;57.50;;;;;;4990807;28;20103;-46
2021/10/05 10:34:24;;;;;;;6.68;4.68;;;29.00;57.20;;;;;;5011179;28;20038;-46
2021/10/05 10:36:50;;;;;;;6.35;4.40;;;28.60;57.10;;;;;;5009799;28;20037;-46
2021/10/05 10:39:17;;;;;;;4.22;3.65;;;;;;;;;;5011410;28;20080;-47
2021/10/05 10:41:46;;;;;;;14.38;5.35;;;;;;;;;;5009804;28;20034;-46
2021/10/05 10:44:14;;;;;;;10.05;5.38;;;28.60;75.90;;;;;;5009974;28;20038;-47
2021/10/05 10:46:42;;;;;;;8.20;5.03;;;29.20;74.50;;;;;;5010469;28;20080;-45
2021/10/05 10:49:19;;;;;;;7.93;4.25;;;29.30;78.70;;;;;;5012289;28;20029;-46
2021/10/05 10:51:47;;;;;;;11.07;4.95;;;29.20;76.10;;;;;;5008831;28;20046;-47
2021/10/05 10:54:21;;;;;;;6.82;5.15;;;29.20;77.30;;;;;;5005777;28;20042;-47
2021/10/05 10:56:57;;;;;;;7.50;4.85;;;;;;;;;;5006408;28;20041;-48
2021/10/05 10:59:26;;;;;;;6.90;4.35;;;28.70;79.00;;;;;;5009045;28;20042;-46
2021/10/05 11:01:52;;;;;;;5.60;4.53;;;;;;;;;;5007206;28;20482;-47
2021/10/05 11:04:20;;;;;;;7.50;4.35;;;29.20;73.90;;;;;;5009150;28;20041;-46
2021/10/05 11:06:46;;;;;;;6.00;4.63;;;;;;;;;;5009512;28;20038;-47
2021/10/05 11:09:12;;;;;;;6.30;4.72;;;;;;;;;;5007090;28;20064;-45
2021/10/05 11:11:43;;;;;;;8.68;5.70;;;;;;;;;;4992652;28;20129;-47
2021/10/05 11:14:11;;;;;;;13.20;7.22;;;;;;;;;;4986156;28;20128;-47
2021/10/05 11:16:38;;;;;;;9.60;6.57;;;;;;;;;;5005607;28;20041;-47
2021/10/05 11:19:04;;;;;;;7.25;4.95;;;;;;;;;;5010862;28;20073;-46
2021/10/05 11:21:31;;;;;;;5.90;4.60;;;;;;;;;;4974446;28;20378;-46
2021/10/05 11:23:57;;;;;;;6.43;5.20;;;;;;;;;;5004099;28;20038;-46
2021/10/05 11:26:33;;;;;;;12.02;5.20;;;;;;;;;;5010393;28;20038;-46
2021/10/05 11:29:01;;;;;;;5.22;4.00;;;;;;;;;;4993715;28;20058;-47
2021/10/05 11:31:28;;;;;;;7.55;5.82;;;;;;;;;;5010062;28;20119;-47
2021/10/05 11:34:03;;;;;;;8.50;4.80;;;;;;;;;;5012187;28;20129;-47
2021/10/05 11:36:29;;;;;;;5.97;4.45;;;;;;;;;;5007367;28;20038;-47
2021/10/05 11:38:55;;;;;;;5.55;3.92;;;;;;;;;;5011935;28;20045;-48
2021/10/05 11:41:21;;;;;;;7.88;5.25;;;29.10;82.30;;;;;;4991775;28;20044;-46
2021/10/05 11:43:50;;;;;;;4.68;3.75;;;29.10;74.60;;;;;;4992610;28;20037;-46
2021/10/05 11:46:24;;;;;;;6.32;4.05;;;28.90;73.60;;;;;;5007336;28;20033;-47
2021/10/05 11:48:51;;;;;;;6.28;4.35;;;;;;;;;;5007782;28;20030;-46
2021/10/05 11:51:18;;;;;;;9.73;4.95;;;;;;;;;;4988731;28;20045;-47
2021/10/05 11:53:45;;;;;;;5.85;4.35;;;;;;;;;;5005663;28;20030;-46
2021/10/05 11:56:12;;;;;;;6.90;4.45;;;;;;;;;;5006489;28;20030;-46
2021/10/05 11:58:52;;;;;;;5.85;4.55;;;;;;;;;;5000092;28;20129;-47
2021/10/05 12:01:27;;;;;;;7.63;4.03;;;;;;;;;;5011978;28;20034;-46
2021/10/05 12:03:57;;;;;;;8.63;4.38;;;29.20;90.30;;;;;;5009115;28;20487;-45
2021/10/05 12:06:50;;;;;;;8.85;4.78;;;29.00;77.90;;;;;;5010633;28;20026;-47
2021/10/05 12:09:18;;;;;;;5.93;4.20;;;29.20;76.00;;;;;;5006715;28;20046;-47
2021/10/05 12:11:46;;;;;;;8.98;4.53;;;29.30;78.60;;;;;;5003881;28;20030;-46
2021/10/05 12:14:13;;;;;;;7.93;4.70;;;;;;;;;;5012126;28;20045;-46
2021/10/05 12:16:54;;;;;;;5.43;4.60;;;29.00;76.00;;;;;;5011420;28;20060;-47
2021/10/05 12:19:27;;;;;;;8.57;5.78;;;28.90;65.50;;;;;;5007338;28;20036;-48
2021/10/05 12:21:55;;;;;;;5.93;5.13;;;29.30;65.60;;;;;;4997555;28;20074;-47
2021/10/05 12:24:21;;;;;;;6.00;3.35;;;29.60;64.00;;;;;;4998186;28;20042;-46
2021/10/05 12:26:51;;;;;;;6.53;4.63;;;29.40;68.20;;;;;;5013297;28;20064;-46
2021/10/05 12:29:18;;;;;;;11.23;5.32;;;29.30;64.00;;;;;;5014746;28;20044;-47
2021/10/05 12:31:56;;;;;;;7.20;4.55;;;29.40;61.70;;;;;;5015030;28;20481;-48
2021/10/05 12:34:32;;;;;;;6.05;4.80;;;29.30;61.60;;;;;;4986392;28;20098;-48
2021/10/05 12:36:58;;;;;;;7.13;4.70;;;29.20;62.30;;;;;;4987700;28;20437;-48
2021/10/05 12:39:24;;;;;;;6.72;3.72;;;29.60;62.10;;;;;;4970288;28;20537;-48
2021/10/05 12:42:01;;;;;;;8.95;4.90;;;29.40;61.60;;;;;;4985363;28;20035;-47
2021/10/05 12:44:30;;;;;;;7.10;4.63;;;29.70;64.00;;;;;;4955434;28;20077;-47
2021/10/05 12:47:00;;;;;;;8.75;4.55;;;;;;;;;;4985877;28;20034;-48
2021/10/05 12:49:26;;;;;;;9.20;5.05;;;29.30;88.30;;;;;;4943728;28;20416;-47
2021/10/05 12:51:53;;;;;;;8.63;5.50;;;29.60;78.90;;;;;;4955129;28;20508;-46